createdAt,value
2019-01-21T00:01:08.426Z,56.07
2019-01-21T00:03:38.066Z,55.85
2019-01-21T00:06:07.717Z,55.87
2019-01-21T00:08:37.295Z,56.06
2019-01-21T00:11:06.946Z,55.39
2019-01-21T00:13:36.261Z,55.81
2019-01-21T00:16:05.657Z,55.08
2019-01-21T00:18:35.020Z,55.15
2019-01-21T00:21:04.442Z,55.60
2019-01-21T00:23:34.105Z,55.75
2019-01-21T00:26:03.757Z,55.80
2019-01-21T00:28:33.430Z,55.58
2019-01-21T00:31:03.108Z,55.08
2019-01-21T00:33:33.052Z,55.23
2019-01-21T00:36:02.866Z,55.38
2019-01-21T00:38:33.055Z,54.33
2019-01-21T00:41:02.968Z,54.98
2019-01-21T00:43:33.190Z,55.03
2019-01-21T00:46:03.208Z,54.92
2019-01-21T00:48:33.019Z,54.70
2019-01-21T00:51:02.870Z,54.86
2019-01-21T00:53:33.170Z,54.72
2019-01-21T00:56:03.496Z,54.42
2019-01-21T00:58:33.605Z,54.15
2019-01-21T01:01:03.839Z,54.01
2019-01-21T01:03:33.608Z,54.34
2019-01-21T01:06:03.865Z,54.85
2019-01-21T01:08:33.875Z,54.78
2019-01-21T01:11:03.996Z,54.69
2019-01-21T01:13:34.432Z,54.51
2019-01-21T01:16:05.161Z,55.03
2019-01-21T01:18:35.076Z,55.23
2019-01-21T01:21:05.499Z,55.06
2019-01-21T01:23:35.422Z,54.77
2019-01-21T01:26:07.094Z,54.48
2019-01-21T01:28:38.029Z,54.66
2019-01-21T01:31:07.845Z,54.97
2019-01-21T01:33:38.767Z,54.42
2019-01-21T01:36:08.607Z,54.60
2019-01-21T01:38:39.310Z,54.94
2019-01-21T01:41:09.021Z,54.64
2019-01-21T01:43:39.039Z,54.20
2019-01-21T01:46:08.852Z,53.62
2019-01-21T01:48:38.761Z,54.25
2019-01-21T01:51:08.896Z,54.69
2019-01-21T01:53:39.216Z,54.32
2019-01-21T01:56:09.322Z,54.51
2019-01-21T01:58:38.990Z,53.93
2019-01-21T02:01:08.719Z,54.66
2019-01-21T02:03:38.561Z,54.97
2019-01-21T02:06:08.631Z,54.67
2019-01-21T02:08:40.547Z,54.62
2019-01-21T02:11:10.551Z,54.63
2019-01-21T02:13:40.880Z,54.57
2019-01-21T02:16:11.107Z,55.23
2019-01-21T02:18:41.220Z,55.84
2019-01-21T02:21:12.568Z,55.68
2019-01-21T02:23:44.233Z,55.18
2019-01-21T02:26:21.844Z,55.51
2019-01-21T02:28:57.280Z,55.37
2019-01-21T02:32:19.915Z,55.39
2019-01-21T02:35:16.205Z,55.32
2019-01-21T02:38:41.769Z,55.36
2019-01-21T02:41:28.266Z,55.09
2019-01-21T02:44:11.733Z,54.98
2019-01-21T02:47:12.110Z,55.92
2019-01-21T02:50:36.831Z,56.26
2019-01-21T02:53:37.160Z,56.37
2019-01-21T02:56:38.486Z,56.45
2019-01-21T02:59:37.098Z,56.61
2019-01-21T03:02:24.400Z,56.81
2019-01-21T03:05:16.596Z,56.82
2019-01-21T03:08:26.314Z,57.02
2019-01-21T03:11:40.260Z,57.01
2019-01-21T03:14:24.427Z,56.90
2019-01-21T03:17:25.026Z,56.88
2019-01-21T03:20:19.975Z,56.77
2019-01-21T03:23:19.505Z,56.63
2019-01-21T03:26:17.625Z,56.66
2019-01-21T03:29:26.866Z,56.46
2019-01-21T03:32:48.607Z,56.46
2019-01-21T03:35:55.118Z,56.71
2019-01-21T03:38:52.011Z,56.83
2019-01-21T03:41:49.786Z,56.98
2019-01-21T03:44:52.772Z,57.34
2019-01-21T03:47:44.780Z,57.58
2019-01-21T03:50:51.282Z,57.50
2019-01-21T03:53:51.818Z,56.88
2019-01-21T03:57:08.220Z,56.89
2019-01-21T04:00:27.893Z,56.95
2019-01-21T04:03:59.765Z,57.13
2019-01-21T04:06:57.166Z,57.52
2019-01-21T04:10:10.723Z,58.01
2019-01-21T04:13:17.235Z,58.19
2019-01-21T04:16:14.395Z,59.12
2019-01-21T04:19:19.436Z,59.55
2019-01-21T04:22:29.924Z,59.60
2019-01-21T04:25:29.193Z,59.48
2019-01-21T04:28:26.863Z,58.91
2019-01-21T04:31:58.934Z,58.70
2019-01-21T04:35:17.287Z,58.23
2019-01-21T04:38:40.344Z,57.74
2019-01-21T04:41:23.415Z,57.97
2019-01-21T04:43:50.924Z,59.08
2019-01-21T04:47:04.469Z,58.61
2019-01-21T04:50:09.618Z,58.47
2019-01-21T04:52:53.619Z,57.96
2019-01-21T04:55:49.178Z,57.71
2019-01-21T04:59:11.883Z,57.69
2019-01-21T05:02:24.376Z,57.58
2019-01-21T05:05:28.119Z,57.14
2019-01-21T05:08:34.369Z,57.27
2019-01-21T05:12:09.218Z,57.57
2019-01-21T05:15:05.303Z,57.39
2019-01-21T05:18:14.778Z,57.33
2019-01-21T05:21:24.049Z,57.41
2019-01-21T05:24:36.547Z,57.97
2019-01-21T05:28:14.536Z,58.21
2019-01-21T05:31:03.204Z,57.94
2019-01-21T05:33:55.638Z,57.47
2019-01-21T05:36:52.388Z,58.02
2019-01-21T05:39:48.836Z,58.58
2019-01-21T05:43:16.683Z,58.66
2019-01-21T05:46:33.186Z,58.41
2019-01-21T05:49:48.660Z,58.08
2019-01-21T05:52:53.442Z,58.23
2019-01-21T05:55:48.491Z,60.22
2019-01-21T05:58:53.783Z,60.30
2019-01-21T06:02:03.825Z,59.94
2019-01-21T06:05:07.278Z,59.48
2019-01-21T06:08:12.616Z,59.02
2019-01-21T06:11:10.869Z,58.67
2019-01-21T06:14:24.914Z,58.78
2019-01-21T06:17:22.827Z,58.83
2019-01-21T06:20:23.784Z,58.48
2019-01-21T06:23:40.346Z,58.14
2019-01-21T06:26:41.854Z,57.96
2019-01-21T06:29:42.883Z,57.92
2019-01-21T06:32:52.199Z,57.77
2019-01-21T06:35:43.232Z,58.04
2019-01-21T06:39:02.610Z,58.80
2019-01-21T06:42:21.981Z,59.05
2019-01-21T06:45:25.431Z,59.24
2019-01-21T06:48:38.039Z,58.83
2019-01-21T06:52:00.693Z,58.54
2019-01-21T06:55:18.128Z,58.67
2019-01-21T06:58:43.591Z,58.64
2019-01-21T07:01:36.864Z,58.23
2019-01-21T07:04:36.767Z,58.52
2019-01-21T07:07:28.614Z,58.29
2019-01-21T07:10:40.631Z,57.81
2019-01-21T07:13:43.418Z,57.77
2019-01-21T07:16:34.157Z,57.72
2019-01-21T07:19:34.686Z,57.21
2019-01-21T07:22:28.289Z,57.21
2019-01-21T07:25:35.045Z,57.50
2019-01-21T07:28:20.015Z,58.23
2019-01-21T07:31:39.598Z,58.49
2019-01-21T07:34:48.420Z,57.95
2019-01-21T07:38:10.261Z,57.33
2019-01-21T07:41:02.389Z,57.86
2019-01-21T07:44:17.951Z,57.46
2019-01-21T07:47:32.640Z,56.65
2019-01-21T07:50:48.053Z,56.63
2019-01-21T07:53:48.598Z,56.85
2019-01-21T07:56:48.759Z,56.42
2019-01-21T07:59:53.768Z,56.07
2019-01-21T08:03:07.382Z,55.96
2019-01-21T08:06:07.682Z,55.58
2019-01-21T08:09:13.877Z,55.09
2019-01-21T08:11:57.273Z,54.30
2019-01-21T08:15:00.780Z,53.59
2019-01-21T08:18:14.117Z,53.50
2019-01-21T08:21:05.301Z,53.59
2019-01-21T08:24:01.486Z,53.13
2019-01-21T08:26:58.510Z,53.80
2019-01-21T08:29:48.527Z,53.86
2019-01-21T08:32:45.214Z,52.92
2019-01-21T08:35:52.585Z,52.67
2019-01-21T08:38:57.561Z,52.92
2019-01-21T08:42:00.334Z,53.33
2019-01-21T08:45:16.988Z,53.41
2019-01-21T08:48:38.564Z,54.52
2019-01-21T08:51:39.747Z,53.74
2019-01-21T08:54:44.671Z,53.34
2019-01-21T08:57:48.366Z,53.52
2019-01-21T09:00:45.395Z,53.25
2019-01-21T09:04:07.885Z,52.25
2019-01-21T09:07:00.644Z,51.40
2019-01-21T09:09:46.415Z,50.91
2019-01-21T09:12:55.663Z,49.96
2019-01-21T09:16:03.041Z,50.21
2019-01-21T09:19:19.853Z,49.00
2019-01-21T09:22:39.038Z,48.90
2019-01-21T09:25:45.969Z,49.38
2019-01-21T09:28:56.599Z,49.28
2019-01-21T09:32:22.411Z,47.37
2019-01-21T09:35:33.072Z,46.73
2019-01-21T09:38:42.487Z,46.29
2019-01-21T09:42:01.325Z,45.65
2019-01-21T09:44:52.931Z,45.63
2019-01-21T09:47:20.628Z,45.03
2019-01-21T09:49:50.029Z,45.05
2019-01-21T09:52:20.754Z,45.62
2019-01-21T09:54:50.663Z,46.94
2019-01-21T09:57:25.916Z,46.84
2019-01-21T09:59:59.816Z,44.76
2019-01-21T10:02:38.159Z,44.96
2019-01-21T10:05:11.786Z,43.32
2019-01-21T10:08:43.360Z,43.22
2019-01-21T10:11:52.602Z,42.50
2019-01-21T10:15:12.223Z,42.30
2019-01-21T10:18:14.315Z,42.59
2019-01-21T10:21:13.017Z,42.64
2019-01-21T10:24:08.936Z,42.91
2019-01-21T10:27:18.362Z,42.10
2019-01-21T10:30:27.634Z,42.28
2019-01-21T10:33:40.862Z,40.69
2019-01-21T10:36:50.294Z,40.89
2019-01-21T10:40:07.933Z,40.36
2019-01-21T10:43:07.027Z,41.17
2019-01-21T10:46:04.903Z,38.67
2019-01-21T10:49:05.225Z,38.28
2019-01-21T10:52:31.255Z,38.01
2019-01-21T10:55:41.608Z,37.72
2019-01-21T10:58:36.012Z,37.66
2019-01-21T11:01:41.486Z,38.49
2019-01-21T11:04:40.056Z,38.22
2019-01-21T11:07:53.479Z,41.06
2019-01-21T11:10:54.223Z,38.92
2019-01-21T11:14:01.615Z,37.15
2019-01-21T11:17:04.705Z,37.78
2019-01-21T11:20:33.395Z,37.48
2019-01-21T11:23:50.419Z,37.50
2019-01-21T11:27:18.903Z,38.21
2019-01-21T11:30:17.688Z,39.16
2019-01-21T11:33:19.053Z,39.29
2019-01-21T11:36:26.756Z,38.89
2019-01-21T11:39:39.065Z,37.42
2019-01-21T11:43:11.332Z,38.11
2019-01-21T11:46:30.708Z,37.92
2019-01-21T11:49:40.972Z,37.32
2019-01-21T11:52:27.034Z,37.04
2019-01-21T11:55:59.039Z,37.43
2019-01-21T11:59:06.660Z,37.74
2019-01-21T12:02:20.272Z,38.20
2019-01-21T12:05:11.926Z,37.81
2019-01-21T12:07:59.247Z,37.46
2019-01-21T12:11:09.212Z,37.63
2019-01-21T12:14:05.717Z,36.66
2019-01-21T12:17:11.983Z,36.11
2019-01-21T12:20:17.405Z,36.26
2019-01-21T12:23:45.916Z,35.49
2019-01-21T12:26:59.552Z,35.23
2019-01-21T12:29:53.432Z,34.59
2019-01-21T12:32:55.091Z,33.43
2019-01-21T12:35:39.768Z,33.43
2019-01-21T12:38:46.097Z,32.69
2019-01-21T12:41:57.355Z,32.50
2019-01-21T12:45:13.196Z,32.50
2019-01-21T12:48:04.417Z,32.45
2019-01-21T12:51:06.132Z,34.70
2019-01-21T12:54:09.647Z,34.70
2019-01-21T12:57:15.886Z,38.75
2019-01-21T13:00:20.262Z,38.75
2019-01-21T13:03:12.071Z,39.92
2019-01-21T13:06:11.631Z,40.42
2019-01-21T13:09:16.850Z,39.07
2019-01-21T13:12:16.045Z,36.79
2019-01-21T13:15:02.970Z,33.71
2019-01-21T13:18:00.565Z,33.71
2019-01-21T13:21:10.788Z,34.56
2019-01-21T13:24:12.368Z,35.01
2019-01-21T13:27:31.244Z,35.01
2019-01-21T13:30:24.942Z,39.16
2019-01-21T13:33:30.522Z,41.64
2019-01-21T13:36:34.438Z,38.41
2019-01-21T13:39:43.951Z,34.79
2019-01-21T13:42:22.978Z,32.60
2019-01-21T13:45:25.488Z,32.60
2019-01-21T13:48:50.909Z,32.11
2019-01-21T13:51:39.562Z,31.64
2019-01-21T13:55:06.305Z,31.20
2019-01-21T13:58:11.964Z,31.25
2019-01-21T14:00:54.543Z,32.54
2019-01-21T14:04:04.453Z,34.30
2019-01-21T14:07:10.899Z,40.06
2019-01-21T14:10:27.200Z,40.58
2019-01-21T14:13:11.588Z,43.18
2019-01-21T14:15:58.878Z,42.13
2019-01-21T14:18:41.390Z,42.13
2019-01-21T14:21:48.983Z,41.86
2019-01-21T14:25:07.648Z,41.97
2019-01-21T14:28:19.157Z,41.97
2019-01-21T14:31:32.888Z,41.75
2019-01-21T14:34:48.689Z,41.75
2019-01-21T14:38:11.542Z,40.26
2019-01-21T14:41:22.857Z,39.26
2019-01-21T14:44:41.061Z,37.52
2019-01-21T14:48:00.692Z,36.89
2019-01-21T14:51:20.216Z,37.36
2019-01-21T14:54:16.945Z,41.49
2019-01-21T14:57:33.661Z,42.60
2019-01-21T15:00:34.440Z,37.69
2019-01-21T15:03:47.116Z,34.17
2019-01-21T15:06:47.134Z,35.33
2019-01-21T15:09:53.343Z,40.25
2019-01-21T15:13:15.871Z,39.79
2019-01-21T15:16:22.389Z,39.95
2019-01-21T15:19:12.606Z,37.00
2019-01-21T15:22:35.585Z,37.00
2019-01-21T15:25:46.413Z,40.10
2019-01-21T15:28:56.374Z,41.72
2019-01-21T15:31:54.459Z,39.55
2019-01-21T15:34:53.491Z,38.22
2019-01-21T15:37:55.319Z,37.46
2019-01-21T15:41:04.570Z,38.14
2019-01-21T15:43:46.222Z,37.96
2019-01-21T15:46:36.472Z,39.22
2019-01-21T15:49:38.706Z,39.54
2019-01-21T15:52:23.151Z,39.25
2019-01-21T15:55:11.496Z,40.33
2019-01-21T15:58:09.087Z,40.33
2019-01-21T16:01:31.710Z,41.42
2019-01-21T16:04:38.087Z,41.33
2019-01-21T16:07:40.956Z,41.78
2019-01-21T16:10:49.219Z,41.90
2019-01-21T16:13:42.670Z,42.45
2019-01-21T16:17:02.394Z,42.45
2019-01-21T16:19:53.868Z,42.77
2019-01-21T16:23:02.881Z,42.31
2019-01-21T16:25:58.188Z,42.31
2019-01-21T16:29:17.785Z,43.54
2019-01-21T16:32:30.815Z,43.61
2019-01-21T16:35:21.567Z,43.72
2019-01-21T16:38:41.235Z,43.72
2019-01-21T16:41:46.146Z,44.30
2019-01-21T16:44:15.616Z,45.21
2019-01-21T16:46:45.889Z,45.21
2019-01-21T16:49:15.739Z,45.33
2019-01-21T16:51:45.174Z,45.60
2019-01-21T16:54:14.614Z,45.51
2019-01-21T16:56:44.077Z,45.28
2019-01-21T16:59:13.461Z,45.53
2019-01-21T17:01:42.896Z,45.46
2019-01-21T17:04:12.259Z,45.68
2019-01-21T17:06:41.715Z,45.22
2019-01-21T17:09:12.015Z,45.92
2019-01-21T17:11:41.467Z,45.58
2019-01-21T17:14:12.485Z,45.67
2019-01-21T17:16:41.896Z,46.07
2019-01-21T17:19:11.255Z,46.25
2019-01-21T17:21:40.662Z,46.26
2019-01-21T17:24:10.137Z,45.89
2019-01-21T17:26:39.562Z,46.23
2019-01-21T17:29:08.926Z,46.29
2019-01-21T17:31:38.612Z,45.72
2019-01-21T17:34:08.255Z,45.88
2019-01-21T17:36:38.016Z,47.05
2019-01-21T17:39:09.320Z,47.91
2019-01-21T17:41:38.973Z,47.67
2019-01-21T17:44:08.576Z,47.45
2019-01-21T17:46:38.188Z,46.98
2019-01-21T17:49:07.775Z,47.21
2019-01-21T17:51:37.441Z,47.51
2019-01-21T17:54:07.103Z,47.78
2019-01-21T17:56:36.489Z,47.56
2019-01-21T17:59:06.316Z,47.10
2019-01-21T18:01:39.382Z,47.25
2019-01-21T18:04:08.579Z,47.45
2019-01-21T18:06:37.951Z,48.10
2019-01-21T18:09:09.895Z,47.70
2019-01-21T18:11:41.472Z,47.75
2019-01-21T18:14:10.635Z,47.95
2019-01-21T18:16:40.021Z,48.39
2019-01-21T18:19:09.465Z,48.38
2019-01-21T18:21:40.313Z,48.59
2019-01-21T18:24:10.111Z,48.31
2019-01-21T18:26:39.568Z,48.38
2019-01-21T18:29:09.133Z,48.95
2019-01-21T18:31:38.945Z,49.49
2019-01-21T18:34:08.619Z,49.81
2019-01-21T18:36:38.303Z,49.64
2019-01-21T18:39:11.740Z,49.97
2019-01-21T18:41:41.303Z,49.97
2019-01-21T18:44:10.739Z,49.42
2019-01-21T18:46:40.148Z,49.56
2019-01-21T18:49:09.594Z,49.44
2019-01-21T18:51:39.074Z,49.70
2019-01-21T18:54:08.757Z,49.90
2019-01-21T18:56:38.299Z,49.95
2019-01-21T18:59:07.980Z,49.78
2019-01-21T19:01:37.649Z,50.07
2019-01-21T19:04:07.336Z,50.27
2019-01-21T19:06:36.943Z,50.29
2019-01-21T19:09:09.063Z,50.20
2019-01-21T19:11:38.620Z,50.37
2019-01-21T19:14:08.261Z,50.49
2019-01-21T19:16:37.860Z,50.40
2019-01-21T19:19:07.279Z,50.80
2019-01-21T19:21:36.665Z,51.02
2019-01-21T19:24:06.631Z,51.03
2019-01-21T19:26:36.148Z,51.55
2019-01-21T19:29:05.846Z,51.61
2019-01-21T19:31:35.499Z,51.07
2019-01-21T19:34:05.445Z,51.78
2019-01-21T19:36:35.098Z,51.98
2019-01-21T19:39:06.530Z,52.27
2019-01-21T19:41:36.170Z,51.86
2019-01-21T19:44:05.861Z,50.79
2019-01-21T19:46:35.505Z,51.42
2019-01-21T19:49:05.260Z,51.22
2019-01-21T19:51:34.693Z,51.47
2019-01-21T19:54:04.364Z,51.89
2019-01-21T19:56:34.231Z,52.49
2019-01-21T19:59:03.919Z,52.55
2019-01-21T20:01:33.593Z,52.25
2019-01-21T20:04:02.971Z,52.82
2019-01-21T20:06:32.444Z,52.51
2019-01-21T20:09:02.085Z,52.89
2019-01-21T20:11:34.891Z,52.93
2019-01-21T20:14:03.119Z,52.38
2019-01-21T20:16:32.767Z,52.64
2019-01-21T20:19:02.337Z,52.31
2019-01-21T20:21:31.991Z,52.14
2019-01-21T20:24:01.647Z,51.70
2019-01-21T20:26:31.287Z,52.17
2019-01-21T20:29:00.984Z,52.53
2019-01-21T20:31:30.612Z,53.46
2019-01-21T20:34:00.193Z,53.25
2019-01-21T20:36:29.843Z,52.92
2019-01-21T20:38:59.397Z,53.27
2019-01-21T20:41:28.982Z,53.51
2019-01-21T20:43:58.589Z,54.03
2019-01-21T20:46:28.096Z,53.80
2019-01-21T20:48:57.725Z,53.77
2019-01-21T20:51:27.127Z,54.26
2019-01-21T20:53:56.509Z,54.11
2019-01-21T20:56:25.922Z,54.28
2019-01-21T20:58:55.309Z,53.93
2019-01-21T21:01:24.759Z,53.67
2019-01-21T21:03:54.126Z,53.67
2019-01-21T21:06:23.520Z,53.41
2019-01-21T21:08:52.906Z,53.67
2019-01-21T21:11:22.315Z,53.16
2019-01-21T21:13:52.156Z,53.11
2019-01-21T21:16:21.913Z,53.48
2019-01-21T21:18:51.576Z,53.97
2019-01-21T21:21:21.025Z,54.32
2019-01-21T21:23:50.473Z,54.04
2019-01-21T21:26:19.885Z,54.29
2019-01-21T21:28:49.284Z,54.02
2019-01-21T21:31:19.092Z,53.56
2019-01-21T21:33:48.496Z,52.84
2019-01-21T21:36:18.024Z,52.84
2019-01-21T21:38:47.880Z,53.37
2019-01-21T21:41:17.491Z,54.09
2019-01-21T21:43:47.120Z,54.00
2019-01-21T21:46:16.718Z,54.16
2019-01-21T21:48:47.114Z,53.87
2019-01-21T21:51:17.107Z,52.92
2019-01-21T21:53:46.695Z,53.37
2019-01-21T21:56:16.570Z,54.86
2019-01-21T21:58:46.643Z,57.23
2019-01-21T22:01:16.382Z,57.52
2019-01-21T22:03:49.149Z,56.43
2019-01-21T22:06:18.990Z,55.76
2019-01-21T22:08:48.930Z,55.74
2019-01-21T22:11:18.613Z,55.70
2019-01-21T22:13:48.639Z,55.86
2019-01-21T22:16:18.395Z,56.21
2019-01-21T22:18:48.131Z,56.68
2019-01-21T22:21:17.750Z,56.77
2019-01-21T22:23:47.442Z,57.27
2019-01-21T22:26:17.176Z,56.64
2019-01-21T22:28:47.458Z,56.96
2019-01-21T22:31:17.055Z,56.70
2019-01-21T22:33:46.990Z,56.61
2019-01-21T22:36:16.715Z,55.39
2019-01-21T22:38:46.523Z,54.36
2019-01-21T22:41:16.258Z,54.75
2019-01-21T22:43:46.151Z,54.83
2019-01-21T22:46:15.874Z,55.68
2019-01-21T22:48:45.651Z,55.38
2019-01-21T22:51:15.311Z,55.04
2019-01-21T22:53:45.190Z,55.30
2019-01-21T22:56:14.797Z,55.00
2019-01-21T22:58:44.575Z,54.75
2019-01-21T23:01:33.644Z,54.42
2019-01-21T23:04:03.347Z,54.30
2019-01-21T23:06:33.007Z,54.56
2019-01-21T23:09:03.681Z,54.33
2019-01-21T23:11:33.501Z,54.00
2019-01-21T23:14:03.554Z,53.98
2019-01-21T23:16:33.290Z,53.95
2019-01-21T23:19:03.156Z,53.36
2019-01-21T23:21:32.944Z,53.33
2019-01-21T23:24:02.675Z,53.68
2019-01-21T23:26:32.857Z,53.55
2019-01-21T23:29:02.735Z,53.75
2019-01-21T23:31:32.368Z,53.70
2019-01-21T23:34:01.997Z,53.48
2019-01-21T23:36:31.438Z,53.85
2019-01-21T23:39:01.406Z,54.01
2019-01-21T23:41:30.982Z,53.89
2019-01-21T23:44:00.382Z,53.53
2019-01-21T23:46:29.731Z,53.68
2019-01-21T23:48:59.199Z,52.85
2019-01-21T23:51:28.567Z,53.08
2019-01-21T23:53:57.971Z,54.96
2019-01-21T23:56:27.668Z,57.39
2019-01-21T23:58:57.243Z,57.42
